WEATHER DATA

YESTERDAY
Time Temp. Dewp. Hum. Wind dir Wind speed Wind gust Bar.
00:05 2.2 -1.9 73 0 0.8 994.9
00:25 2.3 -1.8 73 315 0.3 0.8 994.7
00:34 2.3 -1.8 73 45 0.3 0.8 994.4
00:45 2.3 -1.8 73 180 0.3 1.4 994.3
00:55 2.3 -1.8 73 90 0.3 1.1 994.1
01:05 2.3 -1.8 73 57 0.3 1.7 994
01:15 2.3 -1.8 73 45 0.3 0.8 993.8
01:26 2.3 -1.8 73 0 0.8 993.6
01:35 2.3 -1.8 73 90 0.3 0.8 993.4
01:45 2.3 -1.8 73 56 0.3 1.1 993.3
01:56 2.2 -1.9 73 90 0.3 1.4 993.1
02:06 2.2 -1.9 73 45 0.3 1.4 992.9
02:16 2.1 -2 73 90 0.3 1.4 992.3
02:26 2.1 -2 73 45 0.3 1.1 992.2
02:42 2.1 -2 73 90 0.3 1.4 992
02:51 2.1 -2 73 90 0.3 1.4 991.8
03:01 2 -2.1 73 45 0.3 1.1 991.5
03:12 2 -2.1 73 53 0.3 1.7 991.2
03:22 2 -2.1 73 90 0.3 1.4 990.9
03:32 1.9 -2.1 73 90 0.3 1.4 990.7
03:42 1.8 -2.2 73 59 0.3 2.2 990.5
03:53 1.8 -2.2 73 73 0.8 2.2 990.2
04:02 1.7 -2.3 73 53 0.8 2.2 990
04:12 1.7 -2.3 73 62 0.8 2.2 989.8
04:23 1.6 -2.4 73 56 0.8 3.1 989.6
04:33 1.6 -2.4 73 90 0.3 2.5 989.2
04:43 1.6 -2.4 73 59 0.8 2.8 988.9
04:53 1.5 -2.5 73 55 0.8 2.5 988.6
05:04 1.4 -2.6 73 101 0.8 2.2 988.2
05:13 1.4 -2.6 73 74 1.1 3.6 988
05:23 1.4 -2.6 73 58 0.8 3.1 987.9
05:33 1.3 -2.7 73 90 0.8 1.7 987.7
05:44 1.3 -2.7 73 45 0.3 1.7 987.6
05:54 1.4 -2.6 73 90 0.8 4.2 987.2
06:04 1.4 -2.6 73 315 0.3 2.2 987.1
06:14 1.4 -2.6 73 41 0.8 3.6 987.1
06:24 1.4 -2.6 73 49 0.8 2.2 986.7
06:34 1.4 -2.6 73 90 0.3 1.7 986.6
06:44 1.4 -2.6 73 38 0.3 2.2 986.4
06:55 1.4 -2.6 73 57 0.8 1.7 986.2
07:05 1.4 -2.6 73 73 0.8 2.5 986
07:20 1.3 -2.7 73 45 0.8 3.6 985.8
07:30 1.3 -2.7 73 55 1.1 3.9 985.5
07:40 1.3 -2.7 73 74 0.8 2.2 985.4
07:50 1.3 -2.7 73 67 1.1 3.9 985
08:00 1.2 -2.7 73 59 0.8 3.1 985.1
08:11 1.1 -2.8 73 90 0.3 1.7 984.8
08:21 1.1 -2.8 73 71 0.8 2.8 984.8
08:30 1.1 -2.8 73 60 1.1 3.9 984.7
08:41 1.1 -2.8 73 64 1.4 4.2 984.6
08:56 1.1 -2.8 73 45 1.1 2.8 984.3
09:06 1.1 -2.8 73 75 1.1 3.1 984.1
09:17 1.2 -2.7 73 52 1.4 3.6 983.9
09:27 1.2 -2.7 73 53 0.3 2.8 983.9
09:37 1.3 -2.7 73 56 0.8 2.8 983.6
09:46 1.3 -2.7 73 135 0.8 1.7 983.6
09:57 1.4 -2.6 73 90 0.8 2.5 983.3
10:07 1.5 -2.5 73 65 0.8 2.2 983.3
10:17 1.5 -2.5 73 62 1.4 3.6 982.9
10:27 1.6 -2.4 73 113 0.8 1.7 982.9
10:38 1.6 -2.4 73 45 0.8 3.1 982.6
10:51 1.7 -2.3 73 66 1.1 4.7 982.2
11:02 1.8 -2.2 73 53 1.1 4.2 982
11:12 1.9 -2.1 73 77 0.8 2.2 981.9
11:22 2 -2.1 73 66 1.1 3.6 981.8
11:43 2.2 -1.9 73 78 0.8 2.5 981.2
11:57 2.4 -1.7 73 54 0.8 2.8 981
12:07 2.5 -1.6 73 57 0.8 3.1 980.6
12:18 2.6 -1.5 73 69 0.8 2.5 980.6
12:28 2.5 -1.6 73 76 1.1 3.9 980.4
12:38 2.6 -1.5 73 90 0.3 2.2 980.3
12:48 2.8 -1.4 73 66 0.8 2.2 980.5
12:58 3 -1.2 73 90 0.8 2.5 980.6
13:08 3.3 -0.9 73 78 0.8 3.6 980.4
13:18 3.4 -0.9 73 62 0.8 2.5 980.4
13:29 3.4 -0.9 73 113 0.8 2.2 980.2
13:39 3.5 -0.8 73 36 0.8 1.7 980.4
13:49 3.6 -0.7 73 64 1.1 3.6 980.3
13:58 3.7 -0.6 73 57 0.3 2.2 980.3
14:09 3.6 -0.7 73 8 0.3 1.4 980.7
14:24 3.4 -0.9 73 336 0.3 0.8 980.9
14:34 3.2 -1 73 59 0.3 1.7 981.1
14:45 3.1 -1.1 73 270 0.3 1.1 981.2
14:54 3.1 -1.1 73 270 0.3 0.8 981.5
15:04 3 -1.2 73 270 0.3 0.8 981.4
15:15 3 -1.2 73 270 0.3 0.8 981.7
15:25 3 -1.2 73 270 0.3 1.1 982
15:35 3 -1.2 73 0 0.8 982
15:45 3 -1.2 73 270 0.3 0.8 982.1
15:56 3 -1.2 73 0 0.8 982.2
16:05 2.9 -1.3 73 0 0.3 982.4
16:15 2.8 -1.4 73 270 0.3 0.8 982.5
16:36 2.5 -1.6 73 270 0.3 1.4 983.2
16:46 2.4 -1.7 73 315 0.3 0.8 983.6
16:56 2.3 -1.8 73 315 0.3 1.1 984
17:06 2.3 -1.8 73 270 0.3 1.7 984.3
17:16 2.4 -1.7 73 311 0.3 1.7 984.5
17:26 2.4 -1.7 73 270 0.3 2.2 984.6
17:36 2.4 -1.7 73 302 0.3 1.7 984.7
17:47 2.4 -1.7 73 270 0.3 1.4 984.8
17:57 2.4 -1.7 73 307 0.8 2.2 984.9
18:07 2.4 -1.7 73 315 0.3 0.8 985
18:17 2.3 -1.8 73 0 0.3 0.8 985.1
18:27 2.1 -2 73 270 0.3 1.1 985.1
18:37 1.9 -2.1 73 270 0.3 1.1 985.3
18:47 1.8 -2.2 73 315 0.3 0.8 985.3
18:58 1.8 -2.2 73 21 0.3 0.8 985.5
19:08 1.7 -2.3 73 315 0.3 0.8 985.8
19:18 1.6 -2.4 73 270 0.3 1.1 985.9
19:27 1.4 -2.6 73 0 0.8 986
19:38 1.3 -2.7 73 0 0.3 0.8 986.2
19:48 1.2 -2.7 73 270 0.3 0.8 986.2
19:58 1.2 -2.7 73 0 0.8 986.4
20:08 1.4 -2.6 73 0 0.8 986.6
20:19 1.5 -2.5 73 0 0.8 986.6
20:33 1.6 -2.4 73 323 0.3 1.1 986.7
20:43 1.6 -2.4 73 306 0.3 0.8 987.2
20:54 1.6 -2.4 73 315 0.3 0.8 987.3
21:04 1.5 -2.5 73 315 0.3 0.8 987.6
21:14 1.3 -2.7 73 270 0.3 0.8 987.7
21:24 1 -2.9 73 270 0.3 0.8 987.8
21:34 0.8 -3.1 73 270 0.3 0.8 988
21:44 0.6 -3.3 73 270 0.3 1.1 988.2
21:54 0.4 -3.4 73 270 0.3 0.8 988.3
22:05 0.2 -3.6 73 270 0.3 0.8 988.4
22:20 0 -3.8 73 351 0.3 0.8 988.6
22:30 0.2 -3.4 74 0 0.8 988.7
22:40 0.2 -3.4 74 324 0.3 0.8 988.7
22:50 0.1 -3.5 74 315 0.3 0.8 988.7
23:00 0.1 -3.5 74 270 0.3 0.8 988.6
23:10 0 -3.6 74 270 0.3 1.1 988.7
23:21 -0.2 -3.8 74 270 0.3 1.1 988.8
23:31 -0.3 -3.9 74 270 0.3 0.8 988.9
23:40 -0.4 -4 74 270 0.3 0.8 988.9
23:51 -0.5 -4.1 74 315 0.3 1.1 988.9

DAY STATISTIC

2019-12-13
TEMPERATURE
AVERAGE
1.8
HIGH
3.7
13:58
LOW
-0.5
23:51
PRESSURE
AVERAGE
986.2
HIGH
994.9
00:05
LOW
980.2
13:29
DEWPOINT
AVERAGE
-2.2
HIGH
-0.6
13:58
LOW
-4.1
23:51
HUMIDITY
AVERAGE
73
HIGH
74
22:30
LOW
73
00:05
WIND SPEED
AVERAGE
0.5
HIGH
1.4
08:41
WIND GUST
AVERAGE
1.8
HIGH
4.7
10:51
WIND DIRECTION
PREVAILING
NE
32.6%
N
3.7
NE
32.6
E
20.7
SE
2.2
S
0.7
SW
0.0
W
19.3
NW
13.3
TEMPERATURE (°C)
LOW
-0.5
HIGH
3.7
AVERAGE
1.8
PRESSURE (hpa)
LOW
980.2
HIGH
994.9
AVERAGE
986.2
DEVICE